Time;durP1;ratioP1;P1;durP2;ratioP2;P2;SDS_P1;SDS_P2;PMS_P1;PMS_P2;Temp;Humidity;BMP_temperature;BMP_pressure;BME280_temperature;BME280_humidity;BME280_pressure;Samples;Min_cycle;Max_cycle;Signal;HPM_P1;HPM_P2
2022/02/11 00:00:38;;;;;;;7.82;6.90;;;;;;;;;;6158844;23;20021;-82
2022/02/11 00:05:55;;;;;;;9.25;6.95;;;;;;;;;;6188191;23;20345;-82
2022/02/11 00:08:25;;;;;;;7.40;4.97;;;;;;;;;;6180754;23;20024;-82
2022/02/11 00:11:00;;;;;;;10.30;7.15;;;;;;;;;;6187358;23;20013;-82
2022/02/11 00:13:32;;;;;;;9.45;8.15;;;;;;;;;;6149147;23;20028;-81
2022/02/11 00:16:02;;;;;;;22.13;8.35;;;;;;;;;;6182825;23;20029;-82
2022/02/11 00:18:30;;;;;;;8.13;7.32;;;;;;;;;;6161449;23;20013;-82
2022/02/11 00:21:05;;;;;;;8.57;6.10;;;;;;;;;;6160134;23;20028;-82
2022/02/11 00:23:41;;;;;;;9.43;8.38;;;;;;;;;;6154307;23;20448;-82
2022/02/11 00:26:20;;;;;;;6.97;5.75;;;;;;;;;;6180518;23;20024;-82
2022/02/11 00:31:56;;;;;;;8.82;6.30;;;;;;;;;;6180373;23;20105;-82
2022/02/11 00:34:38;;;;;;;13.23;6.78;;;;;;;;;;6187314;23;20028;-82
2022/02/11 00:37:11;;;;;;;14.65;7.28;;;;;;;;;;6204789;23;20036;-82
2022/02/11 01:04:18;;;;;;;8.90;6.97;;;;;;;;;;6129256;23;20021;-82
2022/02/11 01:06:46;;;;;;;10.80;8.20;;;;;;;;;;6104115;23;20721;-82
2022/02/11 01:09:14;;;;;;;12.50;7.38;;;;;;;;;;6150943;23;20020;-82
2022/02/11 01:11:52;;;;;;;13.00;8.55;;;;;;;;;;6101949;23;20040;-82
2022/02/11 01:14:31;;;;;;;13.98;8.73;;;;;;;;;;6125850;23;20021;-82
2022/02/11 01:17:13;;;;;;;8.20;7.07;;;;;;;;;;6151354;23;20028;-82
2022/02/11 01:30:24;;;;;;;20.33;6.95;;;;;;;;;;6185884;23;20013;-82
2022/02/11 01:39:01;;;;;;;8.65;7.32;;;;;;;;;;6160672;23;20020;-82
2022/02/11 01:57:50;;;;;;;12.70;8.45;;;;;;;;;;6176211;23;20021;-82
2022/02/11 02:03:40;;;;;;;9.23;7.50;;;;;;;;;;6189044;23;20024;-82
2022/02/11 02:06:25;;;;;;;9.13;7.20;;;;;;;;;;6166166;23;20033;-82
2022/02/11 02:12:02;;;;;;;8.95;7.70;;;;;;;;;;6185752;23;20415;-82
2022/02/11 02:23:10;;;;;;;7.82;7.13;;;;;;;;;;6144490;23;20017;-82
2022/02/11 02:50:25;;;;;;;11.47;7.17;;;;;;;;;;6135044;23;20032;-82
2022/02/11 02:58:10;;;;;;;8.43;7.63;;;;;;;;;;6187060;23;20021;-82
2022/02/11 03:01:32;;;;;;;8.55;7.75;;;;;;;;;;6179268;23;20341;-82
2022/02/11 03:34:37;;;;;;;7.97;7.18;;;;;;;;;;6184496;23;20475;-82
2022/02/11 04:21:31;;;;;;;10.05;6.32;;;;;;;;;;6178103;23;20032;-82
2022/02/11 04:25:07;;;;;;;10.77;6.63;;;;;;;;;;6177536;23;20040;-81
2022/02/11 04:59:56;;;;;;;4.93;4.53;;;;;;;;;;6181479;23;20028;-81
2022/02/11 05:02:26;;;;;;;2.55;2.35;;;;;;;;;;6126227;23;20017;-82
2022/02/11 05:04:54;;;;;;;5.75;3.03;;;;;;;;;;6178912;23;20032;-81
2022/02/11 05:07:22;;;;;;;4.28;3.10;;;;;;;;;;6184648;23;20032;-81
2022/02/11 05:09:50;;;;;;;2.78;2.50;;;;;;;;;;6186601;23;20020;-81
2022/02/11 05:12:19;;;;;;;3.20;2.85;;;;;;;;;;6181219;23;20077;-81
2022/02/11 05:14:47;;;;;;;2.80;2.17;;;;;;;;;;6186819;23;20318;-81
2022/02/11 05:17:15;;;;;;;5.13;3.70;;;;;;;;;;6176666;23;20032;-81
2022/02/11 05:19:43;;;;;;;2.15;1.95;;;;;;;;;;6183033;23;20405;-81
2022/02/11 05:22:11;;;;;;;2.47;2.25;;;;;;;;;;6187362;23;20025;-82
2022/02/11 05:24:39;;;;;;;2.17;1.98;;;;;;;;;;6179706;23;20491;-81
2022/02/11 05:27:07;;;;;;;2.85;2.65;;;;;;;;;;6185217;23;20712;-81
2022/02/11 05:29:36;;;;;;;2.28;2.17;;;;;;;;;;6186205;23;20310;-81
2022/02/11 05:32:06;;;;;;;2.33;2.13;;;;;;;;;;6176708;23;20088;-81
2022/02/11 05:34:35;;;;;;;6.80;3.22;;;;;;;;;;6185932;23;20017;-81
2022/02/11 05:37:03;;;;;;;2.17;2.00;;;;;;;;;;6179629;23;20021;-82
2022/02/11 05:39:31;;;;;;;2.63;2.42;;;;;;;;;;6185436;23;20029;-81
2022/02/11 05:41:59;;;;;;;4.03;2.55;;;;;;;;;;6151899;23;20017;-81
2022/02/11 05:44:27;;;;;;;3.40;3.10;;;;;;;;;;6130610;23;20036;-81
2022/02/11 05:46:55;;;;;;;2.40;2.05;;;;;;;;;;6151552;23;20021;-81
2022/02/11 05:49:23;;;;;;;1.60;1.50;;;;;;;;;;6177860;23;20025;-81
2022/02/11 05:51:51;;;;;;;2.58;2.13;;;;;;;;;;6157443;23;20032;-81
2022/02/11 05:54:19;;;;;;;4.68;2.10;;;;;;;;;;6186557;23;20381;-80
2022/02/11 05:56:47;;;;;;;4.30;3.17;;;;;;;;;;6179566;23;20025;-81
2022/02/11 05:59:25;;;;;;;2.55;2.35;;;;;;;;;;6185299;23;20013;-81
2022/02/11 06:01:53;;;;;;;3.17;1.98;;;;;;;;;;6188764;23;20035;-80
2022/02/11 06:04:24;;;;;;;5.35;2.13;;;;;;;;;;6178339;23;20036;-79
2022/02/11 06:06:53;;;;;;;2.90;2.70;;;;;;;;;;6188677;23;20031;-82
2022/02/11 06:09:22;;;;;;;3.03;2.35;;;;;;;;;;6177430;23;20044;-81
2022/02/11 06:11:50;;;;;;;2.92;2.28;;;;;;;;;;6183727;23;20025;-81
2022/02/11 06:14:18;;;;;;;3.03;2.83;;;;;;;;;;6162227;23;20020;-81
2022/02/11 06:16:46;;;;;;;2.80;2.60;;;;;;;;;;6180482;23;20029;-81
2022/02/11 06:19:14;;;;;;;4.30;3.28;;;;;;;;;;6183220;23;20020;-82
2022/02/11 06:21:42;;;;;;;3.70;2.13;;;;;;;;;;6188079;23;20024;-85
2022/02/11 06:24:10;;;;;;;3.75;3.35;;;;;;;;;;6182804;23;20551;-84
2022/02/11 06:26:40;;;;;;;5.80;4.75;;;;;;;;;;6162224;23;20333;-85
2022/02/11 06:29:08;;;;;;;17.83;4.60;;;;;;;;;;6177865;23;20029;-86
2022/02/11 06:31:36;;;;;;;5.35;4.82;;;;;;;;;;6184814;23;20025;-85
2022/02/11 06:34:09;;;;;;;6.15;4.43;;;;;;;;;;6187777;23;20020;-85
2022/02/11 06:36:39;;;;;;;6.28;5.78;;;;;;;;;;6177349;23;20036;-84
2022/02/11 06:39:07;;;;;;;4.28;3.97;;;;;;;;;;6186450;23;20024;-83
2022/02/11 06:41:35;;;;;;;4.80;4.15;;;;;;;;;;6188708;23;20325;-83
2022/02/11 06:44:03;;;;;;;9.90;5.43;;;;;;;;;;6183106;23;20036;-84
2022/02/11 06:46:31;;;;;;;7.32;4.93;;;;;;;;;;6162242;23;20036;-85
2022/02/11 06:48:59;;;;;;;5.07;4.60;;;;;;;;;;6126535;23;20025;-83
2022/02/11 06:51:27;;;;;;;8.45;5.65;;;;;;;;;;6185622;23;20028;-84
2022/02/11 06:53:55;;;;;;;4.80;3.70;;;;;;;;;;6188453;23;20332;-83
2022/02/11 06:56:24;;;;;;;6.50;3.88;;;;;;;;;;6182067;23;20527;-84
2022/02/11 06:58:53;;;;;;;6.43;5.93;;;;;;;;;;6187721;23;20044;-84
2022/02/11 07:01:21;;;;;;;9.27;5.53;;;;;;;;;;6150743;23;20025;-83
2022/02/11 07:03:50;;;;;;;6.30;5.75;;;;;;;;;;6178122;23;20024;-84
2022/02/11 07:06:18;;;;;;;6.00;5.57;;;;;;;;;;6188332;23;20016;-82
2022/02/11 07:08:46;;;;;;;5.68;4.30;;;;;;;;;;6178124;23;20457;-84
2022/02/11 07:11:14;;;;;;;5.95;4.97;;;;;;;;;;6184980;23;20013;-84
2022/02/11 07:13:42;;;;;;;8.27;6.35;;;;;;;;;;6187305;23;20345;-83
2022/02/11 07:16:11;;;;;;;7.75;4.72;;;;;;;;;;6155895;23;20440;-84
2022/02/11 07:18:40;;;;;;;4.70;4.03;;;;;;;;;;6150647;23;20025;-83
2022/02/11 07:21:09;;;;;;;3.78;2.88;;;;;;;;;;6178984;23;20024;-85
2022/02/11 07:23:41;;;;;;;3.63;3.33;;;;;;;;;;6177669;23;20017;-83
2022/02/11 07:26:09;;;;;;;4.72;3.55;;;;;;;;;;6188507;23;20476;-85
2022/02/11 07:28:38;;;;;;;7.30;6.10;;;;;;;;;;6153626;23;20024;-84
2022/02/11 07:31:06;;;;;;;5.38;4.80;;;;;;;;;;6150390;23;20021;-85
2022/02/11 07:33:34;;;;;;;5.28;4.68;;;;;;;;;;6188374;23;20017;-86
2022/02/11 07:36:02;;;;;;;3.63;2.90;;;;;;;;;;6179191;23;20722;-86
2022/02/11 07:38:31;;;;;;;3.75;3.40;;;;;;;;;;6150828;23;20021;-85
2022/02/11 07:40:59;;;;;;;3.25;2.97;;;;;;;;;;6179154;23;20033;-86
2022/02/11 07:43:28;;;;;;;4.38;4.07;;;;;;;;;;6158083;23;20025;-84
2022/02/11 07:46:12;;;;;;;4.20;3.90;;;;;;;;;;6151668;23;20065;-85
2022/02/11 07:48:40;;;;;;;6.32;4.15;;;;;;;;;;6153815;23;20767;-84
2022/02/11 07:51:08;;;;;;;4.00;3.65;;;;;;;;;;6160144;23;20060;-84
2022/02/11 07:53:42;;;;;;;6.15;4.22;;;;;;;;;;6187560;23;20024;-85
2022/02/11 07:56:10;;;;;;;9.63;4.65;;;;;;;;;;6181700;23;20059;-83
2022/02/11 07:58:39;;;;;;;5.57;5.07;;;;;;;;;;6149846;23;20412;-85
2022/02/11 08:01:07;;;;;;;5.10;3.22;;;;;;;;;;6178324;23;20035;-85
2022/02/11 08:03:37;;;;;;;5.43;4.53;;;;;;;;;;6185319;23;20021;-85
2022/02/11 08:06:05;;;;;;;4.90;4.43;;;;;;;;;;6161893;23;20020;-85
2022/02/11 08:08:34;;;;;;;5.45;3.97;;;;;;;;;;6180150;23;20029;-86
2022/02/11 08:11:02;;;;;;;6.28;3.95;;;;;;;;;;6184479;23;20035;-85
2022/02/11 08:13:31;;;;;;;5.85;4.38;;;;;;;;;;6186970;23;20727;-86
2022/02/11 08:15:59;;;;;;;5.03;3.92;;;;;;;;;;6183167;23;20036;-84
2022/02/11 08:18:27;;;;;;;6.82;6.15;;;;;;;;;;6187256;23;20017;-84
2022/02/11 08:21:11;;;;;;;4.28;3.83;;;;;;;;;;6177547;23;20575;-86
2022/02/11 08:23:39;;;;;;;4.32;3.92;;;;;;;;;;6150014;23;20025;-84
2022/02/11 08:26:08;;;;;;;5.03;4.53;;;;;;;;;;6137307;23;20420;-85
2022/02/11 08:28:40;;;;;;;3.83;3.53;;;;;;;;;;6178798;23;20488;-85
2022/02/11 08:31:08;;;;;;;4.05;3.65;;;;;;;;;;6160016;23;20020;-85
2022/02/11 08:33:37;;;;;;;3.58;3.28;;;;;;;;;;6161125;23;20032;-85
2022/02/11 08:36:05;;;;;;;7.97;3.83;;;;;;;;;;6177956;23;20025;-85
2022/02/11 08:38:33;;;;;;;4.47;4.18;;;;;;;;;;6187183;23;20028;-85
2022/02/11 08:41:01;;;;;;;3.65;3.35;;;;;;;;;;6150421;23;20360;-85
2022/02/11 08:43:29;;;;;;;3.90;3.60;;;;;;;;;;6157501;23;20031;-83
2022/02/11 08:45:57;;;;;;;3.38;3.10;;;;;;;;;;6150643;23;20017;-84
2022/02/11 08:48:25;;;;;;;3.10;2.90;;;;;;;;;;6154533;23;20025;-86
2022/02/11 08:50:53;;;;;;;3.38;3.08;;;;;;;;;;6137049;23;20021;-84
2022/02/11 08:53:32;;;;;;;3.28;2.47;;;;;;;;;;6175748;23;20028;-84
2022/02/11 08:56:06;;;;;;;2.67;2.33;;;;;;;;;;6182414;23;20361;-84
2022/02/11 08:58:35;;;;;;;1.75;1.65;;;;;;;;;;6185820;23;20024;-84
2022/02/11 09:01:04;;;;;;;2.30;2.20;;;;;;;;;;6178134;23;20037;-84
2022/02/11 09:03:36;;;;;;;2.67;2.30;;;;;;;;;;6158189;23;20336;-84
2022/02/11 09:06:04;;;;;;;2.95;2.75;;;;;;;;;;6187590;23;20028;-84
2022/02/11 09:08:36;;;;;;;4.53;3.05;;;;;;;;;;6181273;23;20552;-85
2022/02/11 09:11:05;;;;;;;3.85;3.33;;;;;;;;;;6127571;23;20028;-85
2022/02/11 09:13:33;;;;;;;3.55;3.33;;;;;;;;;;6127293;23;20017;-84
2022/02/11 09:16:03;;;;;;;4.03;3.42;;;;;;;;;;6158314;23;20262;-84
2022/02/11 09:18:31;;;;;;;3.15;2.92;;;;;;;;;;6188521;23;20013;-83
2022/02/11 09:21:01;;;;;;;4.78;3.85;;;;;;;;;;6127464;23;20036;-82
2022/02/11 09:23:41;;;;;;;3.38;2.85;;;;;;;;;;6177918;23;20021;-84
2022/02/11 09:26:18;;;;;;;4.25;3.78;;;;;;;;;;6164811;23;20024;-84
2022/02/11 09:28:49;;;;;;;3.80;3.40;;;;;;;;;;6127399;23;20418;-83
2022/02/11 09:31:18;;;;;;;3.55;3.22;;;;;;;;;;6186262;23;20055;-85
2022/02/11 09:33:47;;;;;;;5.90;3.78;;;;;;;;;;6189473;23;20021;-83
2022/02/11 09:36:15;;;;;;;4.30;3.97;;;;;;;;;;6178943;23;20025;-84
2022/02/11 09:38:43;;;;;;;3.67;3.30;;;;;;;;;;6188591;23;20036;-84
2022/02/11 09:41:12;;;;;;;2.85;2.72;;;;;;;;;;6152108;23;20021;-85
2022/02/11 09:43:41;;;;;;;4.90;3.08;;;;;;;;;;6158578;23;20043;-85
2022/02/11 09:46:11;;;;;;;4.43;4.13;;;;;;;;;;6152133;23;20039;-85
2022/02/11 09:48:38;;;;;;;3.72;3.22;;;;;;;;;;6130275;23;20013;-84
2022/02/11 09:51:05;;;;;;;3.15;2.95;;;;;;;;;;6187631;23;20005;-85
2022/02/11 09:53:34;;;;;;;4.28;3.65;;;;;;;;;;6162596;23;20025;-84
2022/02/11 09:56:04;;;;;;;4.75;2.78;;;;;;;;;;6157571;23;20457;-84
2022/02/11 09:58:53;;;;;;;4.88;3.65;;;;;;;;;;6187008;23;20021;-84
2022/02/11 10:01:22;;;;;;;2.15;2.05;;;;;;;;;;6178161;23;20377;-84
2022/02/11 10:04:07;;;;;;;3.15;2.85;;;;;;;;;;6127579;23;20009;-84
2022/02/11 10:06:35;;;;;;;3.67;2.88;;;;;;;;;;6162379;23;20020;-83
2022/02/11 10:09:05;;;;;;;3.83;3.45;;;;;;;;;;6153051;23;20421;-83
2022/02/11 10:11:33;;;;;;;3.88;3.50;;;;;;;;;;6185495;23;20024;-83
2022/02/11 10:14:20;;;;;;;3.88;3.60;;;;;;;;;;6159287;23;20024;-83
2022/02/11 10:16:55;;;;;;;3.08;2.67;;;;;;;;;;6102649;23;20025;-83
2022/02/11 10:19:56;;;;;;;4.18;3.88;;;;;;;;;;6185400;23;20060;-83
2022/02/11 10:22:25;;;;;;;4.03;3.72;;;;;;;;;;6146277;23;20025;-82
2022/02/11 10:24:59;;;;;;;2.97;2.70;;;;;;;;;;6153246;23;20021;-83
2022/02/11 10:27:35;;;;;;;3.95;3.60;;;;;;;;;;6160325;23;20032;-83
2022/02/11 10:30:05;;;;;;;3.60;3.40;;;;;;;;;;6187617;23;20028;-83
2022/02/11 10:32:47;;;;;;;3.00;2.80;;;;;;;;;;6153115;23;20485;-84
2022/02/11 10:35:19;;;;;;;5.55;2.60;;;;;;;;;;6132519;23;20025;-84
2022/02/11 10:38:08;;;;;;;6.65;2.25;;;;;;;;;;6156405;23;20529;-85
2022/02/11 10:40:37;;;;;;;2.75;2.55;;;;;;;;;;6148092;23;20032;-85
2022/02/11 10:43:18;;;;;;;2.25;2.15;;;;;;;;;;6156585;23;20017;-85
2022/02/11 10:45:47;;;;;;;2.83;2.63;;;;;;;;;;6131892;23;20014;-85
2022/02/11 10:48:17;;;;;;;3.10;2.90;;;;;;;;;;6152375;23;20032;-81
2022/02/11 10:50:47;;;;;;;3.03;2.83;;;;;;;;;;6122364;23;20014;-84
2022/02/11 10:53:28;;;;;;;2.75;2.55;;;;;;;;;;6121850;23;20044;-85
2022/02/11 10:55:58;;;;;;;2.97;2.75;;;;;;;;;;6153619;23;20043;-86
2022/02/11 10:58:28;;;;;;;2.92;2.72;;;;;;;;;;6156805;23;20024;-85
2022/02/11 11:01:00;;;;;;;3.13;2.83;;;;;;;;;;6150240;23;20021;-84
2022/02/11 11:03:34;;;;;;;3.05;2.78;;;;;;;;;;6148082;23;20021;-85
2022/02/11 11:06:05;;;;;;;2.88;2.30;;;;;;;;;;6133143;23;20021;-85
2022/02/11 11:08:37;;;;;;;3.37;2.90;;;;;;;;;;6150337;23;20033;-86
2022/02/11 11:11:09;;;;;;;5.85;4.57;;;;;;;;;;6131601;23;20577;-85
2022/02/11 11:13:39;;;;;;;3.30;2.67;;;;;;;;;;6123755;23;20024;-85
2022/02/11 11:16:10;;;;;;;2.72;2.60;;;;;;;;;;6152954;23;20029;-86
2022/02/11 11:18:38;;;;;;;2.47;2.28;;;;;;;;;;6158427;23;20021;-84
2022/02/11 11:21:08;;;;;;;2.13;2.03;;;;;;;;;;6123074;23;20033;-80
2022/02/11 11:23:45;;;;;;;2.63;2.28;;;;;;;;;;6129054;23;20453;-84
2022/02/11 11:26:13;;;;;;;2.80;2.30;;;;;;;;;;6132604;23;20020;-83
2022/02/11 11:28:42;;;;;;;2.50;2.30;;;;;;;;;;6123973;23;20029;-84
2022/02/11 11:31:22;;;;;;;3.28;3.08;;;;;;;;;;6155908;23;20029;-84
2022/02/11 11:33:51;;;;;;;3.75;3.45;;;;;;;;;;6158908;23;20014;-83
2022/02/11 11:36:21;;;;;;;2.35;2.25;;;;;;;;;;6176953;23;20032;-84
2022/02/11 11:38:56;;;;;;;2.95;2.60;;;;;;;;;;6187623;23;20047;-85
2022/02/11 11:41:25;;;;;;;2.47;2.38;;;;;;;;;;6177962;23;20028;-85
2022/02/11 11:43:58;;;;;;;6.50;3.38;;;;;;;;;;6183944;23;20025;-85
2022/02/11 11:46:29;;;;;;;12.57;3.45;;;;;;;;;;6188529;23;20021;-84
2022/02/11 11:49:10;;;;;;;3.45;3.17;;;;;;;;;;6179845;23;20688;-85
2022/02/11 11:51:46;;;;;;;3.15;2.05;;;;;;;;;;6126553;23;20024;-84
2022/02/11 11:54:23;;;;;;;3.35;2.90;;;;;;;;;;6127180;23;20029;-85
2022/02/11 11:56:56;;;;;;;2.83;2.63;;;;;;;;;;6179752;23;20029;-84
2022/02/11 11:59:28;;;;;;;2.83;2.55;;;;;;;;;;6158554;23;20032;-84
2022/02/11 12:02:20;;;;;;;5.25;2.88;;;;;;;;;;6162074;23;20024;-83
2022/02/11 12:04:49;;;;;;;9.55;3.42;;;;;;;;;;6171694;23;20032;-84
2022/02/11 12:07:17;;;;;;;3.45;3.25;;;;;;;;;;6159915;23;20333;-84
2022/02/11 12:09:48;;;;;;;2.40;2.30;;;;;;;;;;6186462;23;20024;-84
2022/02/11 12:12:20;;;;;;;3.67;2.33;;;;;;;;;;6181856;23;20032;-83
2022/02/11 12:14:50;;;;;;;5.18;2.90;;;;;;;;;;6161601;23;20024;-82
2022/02/11 12:17:19;;;;;;;3.67;3.38;;;;;;;;;;6177630;23;20029;-82
2022/02/11 12:19:48;;;;;;;2.90;2.70;;;;;;;;;;6183767;23;20021;-82
2022/02/11 12:22:17;;;;;;;3.17;2.97;;;;;;;;;;6188276;23;20017;-83
2022/02/11 12:27:36;;;;;;;2.30;2.13;;;;;;;;;;6185056;23;20380;-82
2022/02/11 12:30:08;;;;;;;3.72;3.42;;;;;;;;;;6187290;23;20028;-85
2022/02/11 12:32:40;;;;;;;2.80;2.60;;;;;;;;;;6181078;23;20028;-85
2022/02/11 12:35:10;;;;;;;3.35;3.05;;;;;;;;;;6150611;23;20025;-84
2022/02/11 12:37:39;;;;;;;6.97;2.55;;;;;;;;;;6187718;23;20013;-84
2022/02/11 12:40:25;;;;;;;2.35;2.22;;;;;;;;;;6181741;23;20021;-84
2022/02/11 12:42:58;;;;;;;2.35;2.15;;;;;;;;;;6126450;23;20021;-84
2022/02/11 12:45:29;;;;;;;2.25;2.05;;;;;;;;;;6148774;23;20031;-86
2022/02/11 12:47:58;;;;;;;2.67;2.03;;;;;;;;;;6183455;23;20021;-87
2022/02/11 12:50:31;;;;;;;7.28;2.33;;;;;;;;;;6151328;23;20017;-87
2022/02/11 12:53:03;;;;;;;10.27;1.88;;;;;;;;;;6150482;23;20021;-85
2022/02/11 12:55:36;;;;;;;2.33;2.22;;;;;;;;;;6185252;23;20021;-85
2022/02/11 12:58:08;;;;;;;2.75;2.58;;;;;;;;;;6188731;23;20016;-84
2022/02/11 13:00:37;;;;;;;6.72;2.30;;;;;;;;;;6153446;23;20036;-85
2022/02/11 13:03:09;;;;;;;2.33;2.13;;;;;;;;;;6186368;23;20760;-84
2022/02/11 13:05:39;;;;;;;3.83;2.88;;;;;;;;;;6187813;23;20020;-86
2022/02/11 13:08:08;;;;;;;3.65;2.42;;;;;;;;;;6182006;23;20025;-82
2022/02/11 13:10:37;;;;;;;2.05;1.95;;;;;;;;;;6187556;23;20479;-85
2022/02/11 13:13:06;;;;;;;2.15;2.05;;;;;;;;;;6178123;23;20032;-84
2022/02/11 13:15:35;;;;;;;3.40;2.65;;;;;;;;;;6184569;23;20028;-86
2022/02/11 13:18:06;;;;;;;4.05;2.35;;;;;;;;;;6187252;23;20017;-85
2022/02/11 13:20:37;;;;;;;2.92;2.72;;;;;;;;;;6180271;23;20021;-85
2022/02/11 13:23:05;;;;;;;6.32;2.03;;;;;;;;;;6183839;23;20452;-84
2022/02/11 13:25:34;;;;;;;1.50;1.40;;;;;;;;;;6186437;23;20013;-85
2022/02/11 13:28:21;;;;;;;2.38;2.25;;;;;;;;;;6148704;23;20020;-82
2022/02/11 13:30:58;;;;;;;8.93;2.38;;;;;;;;;;6149768;23;20024;-84
2022/02/11 13:33:28;;;;;;;3.85;1.85;;;;;;;;;;6175701;23;20025;-85
2022/02/11 13:35:58;;;;;;;3.83;1.67;;;;;;;;;;6152334;23;20032;-84
2022/02/11 13:38:28;;;;;;;3.17;2.17;;;;;;;;;;6186276;23;20024;-83
2022/02/11 13:40:59;;;;;;;2.67;2.28;;;;;;;;;;6174752;23;20056;-84
2022/02/11 13:43:28;;;;;;;2.58;2.42;;;;;;;;;;6124734;23;20863;-84
2022/02/11 13:45:57;;;;;;;12.32;4.15;;;;;;;;;;6187367;23;20017;-84
2022/02/11 13:48:31;;;;;;;4.00;2.05;;;;;;;;;;6154008;23;20025;-82
2022/02/11 13:51:11;;;;;;;1.75;1.60;;;;;;;;;;6180283;23;20013;-83
2022/02/11 13:53:41;;;;;;;1.70;1.52;;;;;;;;;;6183159;23;20013;-84
2022/02/11 13:56:14;;;;;;;4.65;2.22;;;;;;;;;;6127951;23;20025;-84
2022/02/11 13:59:01;;;;;;;3.92;2.38;;;;;;;;;;6187042;23;20372;-85
2022/02/11 14:01:34;;;;;;;3.53;1.80;;;;;;;;;;6151008;23;20028;-84
2022/02/11 14:04:10;;;;;;;2.03;1.92;;;;;;;;;;6183512;23;20025;-84
2022/02/11 14:06:51;;;;;;;3.00;2.25;;;;;;;;;;6189224;23;20437;-80
2022/02/11 14:09:39;;;;;;;1.73;1.63;;;;;;;;;;6175760;23;20021;-82
2022/02/11 14:12:15;;;;;;;2.50;2.30;;;;;;;;;;6177648;23;20036;-82
2022/02/11 14:14:58;;;;;;;4.07;1.98;;;;;;;;;;6178318;23;20017;-83
2022/02/11 14:17:29;;;;;;;5.25;2.13;;;;;;;;;;6176291;23;20029;-82
2022/02/11 14:19:58;;;;;;;2.15;2.05;;;;;;;;;;6183575;23;20024;-80
2022/02/11 14:22:30;;;;;;;2.83;2.63;;;;;;;;;;6178734;23;20441;-86
2022/02/11 14:24:59;;;;;;;1.20;1.15;;;;;;;;;;6129106;23;20440;-84
2022/02/11 14:27:29;;;;;;;2.47;1.95;;;;;;;;;;6152155;23;20032;-85
2022/02/11 14:30:03;;;;;;;1.60;1.10;;;;;;;;;;6177730;23;20024;-86
2022/02/11 14:32:36;;;;;;;1.63;1.52;;;;;;;;;;6127964;23;20025;-85
2022/02/11 14:35:08;;;;;;;3.58;2.13;;;;;;;;;;6138259;23;20033;-87
2022/02/11 14:37:39;;;;;;;5.15;1.63;;;;;;;;;;6122509;23;20025;-83
2022/02/11 14:40:14;;;;;;;2.35;1.27;;;;;;;;;;6147556;23;20018;-86
2022/02/11 14:42:49;;;;;;;1.65;1.50;;;;;;;;;;6148746;23;20018;-86
2022/02/11 14:45:20;;;;;;;1.70;1.60;;;;;;;;;;6122397;23;20044;-86
2022/02/11 14:47:51;;;;;;;2.45;1.40;;;;;;;;;;6147986;23;20025;-86
2022/02/11 14:50:23;;;;;;;1.42;1.33;;;;;;;;;;6149464;23;20013;-85
2022/02/11 14:52:51;;;;;;;1.52;1.40;;;;;;;;;;6150013;23;20025;-87
2022/02/11 14:55:20;;;;;;;2.60;1.60;;;;;;;;;;6155921;23;20041;-86
2022/02/11 14:57:50;;;;;;;2.10;1.90;;;;;;;;;;6156404;23;20017;-87
2022/02/11 15:00:21;;;;;;;1.98;1.88;;;;;;;;;;6146502;23;20025;-86
2022/02/11 15:02:49;;;;;;;3.58;1.40;;;;;;;;;;6158236;23;20013;-86
2022/02/11 15:05:20;;;;;;;1.58;1.42;;;;;;;;;;6146060;23;20029;-85
2022/02/11 15:07:48;;;;;;;1.58;1.48;;;;;;;;;;6152183;23;20028;-86
2022/02/11 15:10:17;;;;;;;1.88;1.48;;;;;;;;;;6158486;23;20337;-86
2022/02/11 15:12:45;;;;;;;6.68;3.00;;;;;;;;;;6151761;23;20021;-85
2022/02/11 15:15:14;;;;;;;1.30;1.20;;;;;;;;;;6156670;23;20024;-86
2022/02/11 15:17:42;;;;;;;6.25;2.22;;;;;;;;;;6156429;23;20705;-85
2022/02/11 15:20:11;;;;;;;1.33;1.33;;;;;;;;;;6153627;23;20029;-86
2022/02/11 15:22:39;;;;;;;1.73;1.63;;;;;;;;;;6154467;23;20025;-87
2022/02/11 15:25:07;;;;;;;2.85;1.95;;;;;;;;;;6148891;23;20021;-87
2022/02/11 15:27:36;;;;;;;1.55;1.48;;;;;;;;;;6069772;23;20369;-86
2022/02/11 15:30:05;;;;;;;3.08;2.10;;;;;;;;;;6096145;23;20017;-86
2022/02/11 15:32:33;;;;;;;6.40;2.10;;;;;;;;;;6096639;23;20032;-84
2022/02/11 15:35:04;;;;;;;1.50;1.40;;;;;;;;;;6104012;23;20028;-85
2022/02/11 15:37:36;;;;;;;2.45;1.70;;;;;;;;;;6126748;23;20025;-85
2022/02/11 15:40:05;;;;;;;9.02;2.03;;;;;;;;;;6151450;23;20021;-85
2022/02/11 15:42:34;;;;;;;1.98;1.65;;;;;;;;;;6122434;23;20017;-84
2022/02/11 15:45:04;;;;;;;8.98;2.42;;;;;;;;;;6149602;23;20029;-84
2022/02/11 15:47:32;;;;;;;1.30;1.20;;;;;;;;;;6125309;23;20021;-83
2022/02/11 15:50:00;;;;;;;1.58;1.48;;;;;;;;;;6187443;23;20017;-85
2022/02/11 15:52:28;;;;;;;3.10;2.20;;;;;;;;;;6155279;23;20036;-84
2022/02/11 15:54:56;;;;;;;1.35;1.25;;;;;;;;;;6187055;23;20025;-82
2022/02/11 15:57:25;;;;;;;1.42;1.33;;;;;;;;;;6174304;23;20345;-83
2022/02/11 15:59:54;;;;;;;2.47;2.05;;;;;;;;;;6175858;23;20033;-82
2022/02/11 16:02:22;;;;;;;8.05;1.50;;;;;;;;;;6187848;23;20013;-81
2022/02/11 16:04:50;;;;;;;4.70;1.90;;;;;;;;;;6179701;23;20495;-83
2022/02/11 16:07:19;;;;;;;1.52;1.40;;;;;;;;;;6185760;23;20017;-82
2022/02/11 16:09:50;;;;;;;2.10;1.75;;;;;;;;;;6175697;23;20017;-84
2022/02/11 16:12:18;;;;;;;1.27;1.23;;;;;;;;;;6181684;23;20477;-83
2022/02/11 16:14:46;;;;;;;3.05;1.67;;;;;;;;;;6187241;23;20016;-83
2022/02/11 16:17:15;;;;;;;2.50;2.30;;;;;;;;;;6176729;23;20708;-83
2022/02/11 16:19:44;;;;;;;8.05;1.77;;;;;;;;;;6183595;23;20637;-83
2022/02/11 16:22:12;;;;;;;1.83;1.65;;;;;;;;;;6187852;23;20713;-82
2022/02/11 16:24:42;;;;;;;1.25;1.15;;;;;;;;;;6180090;23;20520;-82
2022/02/11 16:27:14;;;;;;;2.97;2.17;;;;;;;;;;6159595;23;20032;-83
2022/02/11 16:29:43;;;;;;;3.78;1.80;;;;;;;;;;6186649;23;20013;-82
2022/02/11 16:32:12;;;;;;;1.58;1.30;;;;;;;;;;6182334;23;20021;-83
2022/02/11 16:34:42;;;;;;;1.77;1.67;;;;;;;;;;6177558;23;20021;-83
2022/02/11 16:37:10;;;;;;;5.13;1.42;;;;;;;;;;6177660;23;20035;-82
2022/02/11 16:39:38;;;;;;;1.65;1.45;;;;;;;;;;6183779;23;20028;-81
2022/02/11 16:42:06;;;;;;;3.05;1.42;;;;;;;;;;6187301;23;20168;-82
2022/02/11 16:44:34;;;;;;;1.40;1.40;;;;;;;;;;6179410;23;20032;-81
2022/02/11 16:47:03;;;;;;;1.10;1.08;;;;;;;;;;6186594;23;20032;-83
2022/02/11 16:49:31;;;;;;;1.73;1.60;;;;;;;;;;6183795;23;20012;-83
2022/02/11 16:52:00;;;;;;;3.33;3.03;;;;;;;;;;6182137;23;20017;-81
2022/02/11 16:54:29;;;;;;;6.47;3.22;;;;;;;;;;6186939;23;20013;-80
2022/02/11 16:56:57;;;;;;;5.57;3.28;;;;;;;;;;6152477;23;20036;-83
2022/02/11 16:59:26;;;;;;;9.93;5.00;;;;;;;;;;6183240;23;20029;-85
2022/02/11 17:01:54;;;;;;;5.85;2.63;;;;;;;;;;6160716;23;20040;-84
2022/02/11 17:04:22;;;;;;;4.20;2.08;;;;;;;;;;6181338;23;20021;-83
2022/02/11 17:06:50;;;;;;;11.68;3.67;;;;;;;;;;6187735;23;20021;-85
2022/02/11 17:09:18;;;;;;;3.47;1.20;;;;;;;;;;6175749;23;20021;-85
2022/02/11 17:11:47;;;;;;;2.35;1.85;;;;;;;;;;6183703;23;20025;-83
2022/02/11 17:14:20;;;;;;;1.95;1.88;;;;;;;;;;6185865;23;20436;-84
2022/02/11 17:16:48;;;;;;;2.30;1.38;;;;;;;;;;6179296;23;20473;-84
2022/02/11 17:19:17;;;;;;;4.93;4.25;;;;;;;;;;6182542;23;20017;-83
2022/02/11 17:21:46;;;;;;;3.88;1.27;;;;;;;;;;6183675;23;20029;-85
2022/02/11 17:24:15;;;;;;;2.90;1.42;;;;;;;;;;6148918;23;20435;-85
2022/02/11 17:26:44;;;;;;;1.92;1.83;;;;;;;;;;6187629;23;20569;-85
2022/02/11 17:29:16;;;;;;;10.82;1.70;;;;;;;;;;6175515;23;20033;-85
2022/02/11 17:31:50;;;;;;;1.65;1.60;;;;;;;;;;6177858;23;20027;-84
2022/02/11 17:34:19;;;;;;;2.78;1.73;;;;;;;;;;6187510;23;20025;-85
2022/02/11 17:36:47;;;;;;;2.60;2.30;;;;;;;;;;6181244;23;20044;-85
2022/02/11 17:39:15;;;;;;;2.17;1.40;;;;;;;;;;6160363;23;20021;-85
2022/02/11 17:41:44;;;;;;;1.55;1.45;;;;;;;;;;6162724;23;20017;-85
2022/02/11 17:44:12;;;;;;;1.27;1.27;;;;;;;;;;6149970;23;20021;-80
2022/02/11 17:46:40;;;;;;;12.95;2.08;;;;;;;;;;6162274;23;20013;-82
2022/02/11 17:49:08;;;;;;;2.45;1.60;;;;;;;;;;6178729;23;20025;-84
2022/02/11 17:51:36;;;;;;;2.45;1.40;;;;;;;;;;6186258;23;20017;-84
2022/02/11 17:54:05;;;;;;;2.13;1.58;;;;;;;;;;6178474;23;20020;-85
2022/02/11 17:56:33;;;;;;;1.65;1.55;;;;;;;;;;6126725;23;20032;-85
2022/02/11 17:59:02;;;;;;;2.85;1.08;;;;;;;;;;6160991;23;20013;-83
2022/02/11 18:01:30;;;;;;;1.63;1.52;;;;;;;;;;6162371;23;20013;-84
2022/02/11 18:03:59;;;;;;;2.67;1.25;;;;;;;;;;6127575;23;20036;-83
2022/02/11 18:06:27;;;;;;;4.03;1.33;;;;;;;;;;6188169;23;20021;-86
2022/02/11 18:08:57;;;;;;;1.98;1.88;;;;;;;;;;6153176;23;20029;-85
2022/02/11 18:11:26;;;;;;;2.22;1.48;;;;;;;;;;6127158;23;20028;-85
2022/02/11 18:13:56;;;;;;;4.55;1.77;;;;;;;;;;6160286;23;20024;-86
2022/02/11 18:16:25;;;;;;;1.58;1.45;;;;;;;;;;6126830;23;20033;-86
2022/02/11 18:18:53;;;;;;;2.80;1.75;;;;;;;;;;6188387;23;20021;-85
2022/02/11 18:21:21;;;;;;;3.55;3.35;;;;;;;;;;6178077;23;20044;-85
2022/02/11 18:23:50;;;;;;;3.33;3.13;;;;;;;;;;6184936;23;20032;-85
2022/02/11 18:26:18;;;;;;;1.80;1.67;;;;;;;;;;6188269;23;20020;-85
2022/02/11 18:28:47;;;;;;;5.95;2.03;;;;;;;;;;6179602;23;20025;-86
2022/02/11 18:31:15;;;;;;;2.10;2.00;;;;;;;;;;6187025;23;20337;-85
2022/02/11 18:33:43;;;;;;;11.38;1.92;;;;;;;;;;6187692;23;20013;-85
2022/02/11 18:36:11;;;;;;;2.03;1.90;;;;;;;;;;6150428;23;20021;-85
2022/02/11 18:38:42;;;;;;;2.55;1.80;;;;;;;;;;6127236;23;20040;-86
2022/02/11 18:41:11;;;;;;;3.03;2.08;;;;;;;;;;6174078;23;20028;-82
2022/02/11 18:43:40;;;;;;;1.95;1.85;;;;;;;;;;6184039;23;20021;-87